createdAt,value
2023-03-11T00:03:15.132Z,5.15
2023-03-11T00:08:18.091Z,5.17
2023-03-11T00:13:19.539Z,5.57
2023-03-11T00:18:21.081Z,5.64
2023-03-11T00:23:22.590Z,5.35
2023-03-11T00:28:26.512Z,5.56
2023-03-11T00:33:27.973Z,5.45
2023-03-11T00:38:29.481Z,5.48
2023-03-11T00:43:30.953Z,5.29
2023-03-11T00:48:32.431Z,5.29
2023-03-11T00:53:33.880Z,5.28
2023-03-11T00:58:35.837Z,5.45
2023-03-11T01:03:37.399Z,5.12
2023-03-11T01:08:39.014Z,5.23
2023-03-11T01:13:40.599Z,5.47
2023-03-11T01:18:42.053Z,5.44
2023-03-11T01:23:43.507Z,5.56
2023-03-11T01:28:45.014Z,5.43
2023-03-11T01:33:46.492Z,5.58
2023-03-11T01:38:47.956Z,5.56
2023-03-11T01:43:52.197Z,5.59
2023-03-11T01:48:57.812Z,5.83
2023-03-11T01:54:05.422Z,5.89
2023-03-11T01:59:08.024Z,5.76
2023-03-11T02:04:09.604Z,5.89
2023-03-11T02:09:11.064Z,5.73
2023-03-11T02:14:12.522Z,5.72
2023-03-11T02:19:53.689Z,5.78
2023-03-11T02:25:07.266Z,5.80
2023-03-11T02:30:10.553Z,5.68
2023-03-11T02:35:12.041Z,5.91
2023-03-11T02:40:22.206Z,5.84
2023-03-11T02:45:24.801Z,5.96
2023-03-11T02:50:26.935Z,6.02
2023-03-11T02:55:28.432Z,5.80
2023-03-11T03:00:29.992Z,5.98
2023-03-11T03:05:31.454Z,5.83
2023-03-11T03:10:33.104Z,6.27
2023-03-11T03:15:34.571Z,6.39
2023-03-11T03:20:36.021Z,6.23
2023-03-11T03:25:37.482Z,6.37
2023-03-11T03:30:39.055Z,6.40
2023-03-11T03:35:42.158Z,6.63
2023-03-11T03:40:47.520Z,6.67
2023-03-11T03:45:56.519Z,6.15
2023-03-11T03:51:02.884Z,5.92
2023-03-11T03:56:05.928Z,5.53
2023-03-11T04:01:07.904Z,5.82
2023-03-11T04:06:20.423Z,5.78
2023-03-11T04:11:21.910Z,5.47
2023-03-11T04:16:23.870Z,5.48
2023-03-11T04:21:25.385Z,5.18
2023-03-11T04:26:28.374Z,5.50
2023-03-11T04:31:29.846Z,5.63
2023-03-11T04:36:31.313Z,5.95
2023-03-11T04:41:33.807Z,6.00
2023-03-11T04:46:35.293Z,6.03
2023-03-11T04:51:36.818Z,5.68
2023-03-11T04:56:38.412Z,5.61
2023-03-11T05:01:39.905Z,5.56
2023-03-11T05:06:41.386Z,5.90
2023-03-11T05:11:42.857Z,5.96
2023-03-11T05:16:44.331Z,5.98
2023-03-11T05:21:45.813Z,5.82
2023-03-11T05:26:48.660Z,5.68
2023-03-11T05:31:50.170Z,6.08
2023-03-11T05:36:51.650Z,5.80
2023-03-11T05:41:53.124Z,5.90
2023-03-11T05:46:54.703Z,6.19
2023-03-11T05:52:02.771Z,5.59
2023-03-11T05:57:04.689Z,5.70
2023-03-11T06:02:06.178Z,6.07
2023-03-11T06:07:07.753Z,6.20
2023-03-11T06:12:09.228Z,6.06
2023-03-11T06:17:10.714Z,6.34
2023-03-11T06:22:12.284Z,6.22
2023-03-11T06:27:13.767Z,6.16
2023-03-11T06:32:15.348Z,6.20
2023-03-11T06:37:16.873Z,6.29
2023-03-11T06:42:18.355Z,6.11
2023-03-11T06:47:19.865Z,6.63
2023-03-11T06:52:21.334Z,6.41
2023-03-11T06:57:22.794Z,6.58
2023-03-11T07:02:24.267Z,6.39
2023-03-11T07:07:25.722Z,6.52
2023-03-11T07:12:27.230Z,6.81
2023-03-11T07:17:28.711Z,6.20
2023-03-11T07:22:30.459Z,6.27
2023-03-11T07:27:32.124Z,6.62
2023-03-11T07:32:33.704Z,6.78
2023-03-11T07:37:35.203Z,6.61
2023-03-11T07:42:36.915Z,6.99
2023-03-11T07:47:38.383Z,7.02
2023-03-11T07:52:39.863Z,7.05
2023-03-11T07:57:41.322Z,7.24
2023-03-11T08:02:42.843Z,7.40
2023-03-11T08:07:44.333Z,7.01
2023-03-11T08:12:45.789Z,7.38
2023-03-11T08:17:47.249Z,7.17
2023-03-11T08:22:57.658Z,7.47
2023-03-11T08:27:59.919Z,7.46
2023-03-11T08:33:01.512Z,7.74
2023-03-11T08:38:03.032Z,7.67
2023-03-11T08:43:04.509Z,7.55
2023-03-11T08:48:06.284Z,7.55
2023-03-11T08:53:08.778Z,7.80
2023-03-11T08:58:10.234Z,8.21
2023-03-11T09:03:11.998Z,8.17
2023-03-11T09:08:13.533Z,8.66
2023-03-11T09:13:15.010Z,8.68
2023-03-11T09:18:17.038Z,8.93
2023-03-11T09:23:18.600Z,8.98
2023-03-11T09:28:20.073Z,8.78
2023-03-11T09:33:21.572Z,9.31
2023-03-11T09:38:23.055Z,9.23
2023-03-11T09:43:39.607Z,9.16
2023-03-11T09:48:52.902Z,9.41
2023-03-11T09:53:56.763Z,9.52
2023-03-11T09:59:27.962Z,8.83
2023-03-11T10:04:36.681Z,9.11
2023-03-11T10:09:40.190Z,9.40
2023-03-11T10:14:59.737Z,9.92
2023-03-11T10:20:19.541Z,9.83
2023-03-11T10:25:28.601Z,9.80
2023-03-11T10:30:47.909Z,9.38
2023-03-11T10:35:54.124Z,9.20
2023-03-11T10:40:56.812Z,9.10
2023-03-11T10:45:58.441Z,9.54
2023-03-11T10:51:22.517Z,9.45
2023-03-11T10:56:25.064Z,9.55
2023-03-11T11:01:26.700Z,9.57
2023-03-11T11:06:29.099Z,9.79
2023-03-11T11:11:30.580Z,10.25
2023-03-11T11:16:33.018Z,9.57
2023-03-11T11:21:38.211Z,10.51
2023-03-11T11:26:39.666Z,10.48
2023-03-11T11:31:44.982Z,10.76
2023-03-11T11:36:46.454Z,10.28
2023-03-11T11:41:48.294Z,10.65
2023-03-11T11:46:53.641Z,10.85
2023-03-11T11:52:13.993Z,10.63
2023-03-11T11:57:16.771Z,10.69
2023-03-11T12:02:21.058Z,10.89
2023-03-11T12:07:52.038Z,10.97
2023-03-11T12:13:25.328Z,11.29
2023-03-11T12:18:30.300Z,11.36
2023-03-11T12:23:34.593Z,11.46
2023-03-11T12:28:37.942Z,11.28
2023-03-11T12:33:46.585Z,10.90
2023-03-11T12:38:48.053Z,11.03
2023-03-11T12:43:52.237Z,11.00
2023-03-11T12:49:10.162Z,10.75
2023-03-11T12:54:27.453Z,11.15
2023-03-11T12:59:40.842Z,10.97
2023-03-11T13:04:53.191Z,11.48
2023-03-11T13:10:14.736Z,11.14
2023-03-11T13:15:21.280Z,10.51
2023-03-11T13:20:56.642Z,10.10
2023-03-11T13:26:29.293Z,10.08
2023-03-11T13:31:42.159Z,10.06
2023-03-11T13:36:55.634Z,10.23
2023-03-11T13:41:57.106Z,10.55
2023-03-11T13:47:07.637Z,10.51
2023-03-11T13:52:12.809Z,10.04
2023-03-11T13:57:25.779Z,10.12
2023-03-11T14:02:27.293Z,10.19
2023-03-11T14:07:30.211Z,10.20
2023-03-11T14:12:31.980Z,10.21
2023-03-11T14:17:33.656Z,10.33
2023-03-11T14:22:35.185Z,9.98
2023-03-11T14:27:39.564Z,9.71
2023-03-11T14:32:41.113Z,9.66
2023-03-11T14:37:45.895Z,8.85
2023-03-11T14:42:48.605Z,8.48
2023-03-11T14:47:59.950Z,8.26
2023-03-11T14:53:14.253Z,8.74
2023-03-11T14:58:35.868Z,9.18
2023-03-11T15:03:55.602Z,9.03
2023-03-11T15:08:59.287Z,9.16
2023-03-11T15:14:21.677Z,9.51
2023-03-11T15:19:25.881Z,9.15
2023-03-11T15:24:28.742Z,8.87
2023-03-11T15:29:30.572Z,8.86
2023-03-11T15:34:33.136Z,8.67
2023-03-11T15:39:34.410Z,8.87
2023-03-11T15:44:42.899Z,9.15
2023-03-11T15:49:44.388Z,8.77
2023-03-11T15:54:55.025Z,8.66
2023-03-11T15:59:58.427Z,8.51
2023-03-11T16:05:00.606Z,7.98
2023-03-11T16:10:04.377Z,7.68
2023-03-11T16:15:06.860Z,7.53
2023-03-11T16:20:08.709Z,7.30
2023-03-11T16:25:39.685Z,7.17
2023-03-11T16:30:41.330Z,6.87
2023-03-11T16:35:42.943Z,6.68
2023-03-11T16:40:44.559Z,6.77
2023-03-11T16:45:46.060Z,6.88
2023-03-11T16:50:47.612Z,7.45
2023-03-11T16:55:49.115Z,7.40
2023-03-11T17:00:50.617Z,7.83
2023-03-11T17:05:52.118Z,7.84
2023-03-11T17:10:53.609Z,8.21
2023-03-11T17:16:01.282Z,7.49
2023-03-11T17:21:10.354Z,7.34
2023-03-11T17:26:15.916Z,7.06
2023-03-11T17:31:17.614Z,6.87
2023-03-11T17:36:19.211Z,6.82
2023-03-11T17:41:20.790Z,6.57
2023-03-11T17:46:25.611Z,6.68
2023-03-11T17:51:27.168Z,6.95
2023-03-11T17:56:28.748Z,7.26
2023-03-11T18:01:30.357Z,7.20
2023-03-11T18:06:31.812Z,7.33
2023-03-11T18:11:33.267Z,7.35
2023-03-11T18:16:34.752Z,7.52
2023-03-11T18:21:36.270Z,8.04
2023-03-11T18:26:37.751Z,7.94
2023-03-11T18:31:39.272Z,7.62
2023-03-11T18:36:41.171Z,7.44
2023-03-11T18:41:43.564Z,7.29
2023-03-11T18:46:45.037Z,7.09
2023-03-11T18:51:46.516Z,7.10
2023-03-11T18:56:48.033Z,7.39
2023-03-11T19:01:50.709Z,7.52
2023-03-11T19:06:52.292Z,7.29
2023-03-11T19:11:53.750Z,7.67
2023-03-11T19:16:55.275Z,7.44
2023-03-11T19:21:56.755Z,7.70
2023-03-11T19:26:58.213Z,7.81
2023-03-11T19:32:01.200Z,7.82
2023-03-11T19:37:03.778Z,7.95
2023-03-11T19:42:05.268Z,7.87
2023-03-11T19:47:06.777Z,7.61
2023-03-11T19:52:09.832Z,7.67
2023-03-11T19:57:11.360Z,7.79
2023-03-11T20:02:13.192Z,7.90
2023-03-11T20:07:14.681Z,7.89
2023-03-11T20:12:16.160Z,7.89
2023-03-11T20:17:17.748Z,7.45
2023-03-11T20:22:20.146Z,7.30
2023-03-11T20:27:21.592Z,7.18
2023-03-11T20:32:23.127Z,7.08
2023-03-11T20:37:24.861Z,7.11
2023-03-11T20:42:26.387Z,7.27
2023-03-11T20:47:27.866Z,7.13
2023-03-11T20:52:35.502Z,7.20
2023-03-11T20:57:37.625Z,7.36
2023-03-11T21:02:39.980Z,6.93
2023-03-11T21:07:41.675Z,7.35
2023-03-11T21:12:43.173Z,7.17
2023-03-11T21:17:44.695Z,7.43
2023-03-11T21:22:46.481Z,7.62
2023-03-11T21:27:47.960Z,7.71
2023-03-11T21:32:49.699Z,7.73
2023-03-11T21:37:51.340Z,7.69
2023-03-11T21:42:53.034Z,7.80
2023-03-11T21:47:54.524Z,7.54
2023-03-11T21:52:56.006Z,7.26
2023-03-11T21:57:57.455Z,7.20
2023-03-11T22:02:58.929Z,7.35
2023-03-11T22:08:00.446Z,7.37
2023-03-11T22:13:02.106Z,7.62
2023-03-11T22:18:03.628Z,7.53
2023-03-11T22:23:05.099Z,7.75
2023-03-11T22:28:06.580Z,7.55
2023-03-11T22:33:08.044Z,7.77
2023-03-11T22:38:09.513Z,7.48
2023-03-11T22:43:10.979Z,7.52
2023-03-11T22:48:12.456Z,7.67
2023-03-11T22:53:15.024Z,7.67
2023-03-11T22:58:16.499Z,7.70
2023-03-11T23:03:18.056Z,7.61
2023-03-11T23:08:19.552Z,7.63
2023-03-11T23:13:21.097Z,7.70
2023-03-11T23:18:22.556Z,7.78
2023-03-11T23:23:24.032Z,7.75
2023-03-11T23:28:25.512Z,7.94
2023-03-11T23:33:26.977Z,7.75
2023-03-11T23:38:28.988Z,7.77
2023-03-11T23:43:30.438Z,7.55
2023-03-11T23:48:32.021Z,7.90
2023-03-11T23:53:33.496Z,7.87
2023-03-11T23:58:34.954Z,7.67
